Startpagina
METAR-TAF:

METAR-TAF

Vliegvelden :

Beiroet, Libanon

breedte: 33-49N, lengte: 035-29E, hoogte: 29 m

Actueel weer

Dit bericht is 31 minuten geleden gemaakt, om 23:00 UTC
Wind 2 kt uit variabele richting
Temperatuur 23°C
Vochtigheid 78%
Druk 1011 hPa
Zicht 10 km of meer
Weinig wolken op 3000 ft

METAR: OLBA 262300Z VRB02KT 9999 FEW030 23/19 Q1011 NOSIG

Tijdstip: 02:31 (23:31 UTC)

Verwachting

Dit bericht is 7 uur en het 31 minuten geleden gemaakt, om 16:00 UTC
Verwachting geldig van 26 om 18 UTC tot 27 om 24 UTC
Wind 8 kt uit het noorden
Zicht 10 km of meer
Weinig wolken op 2600 ft
Wijzigt naar
van 27 om 06 UTC tot 27 om 09 UTC
Wind 8 kt uit het noordnoordwesten
Zicht: 8000 m
Verspreide wolken op 2600 ft
Wijzigt naar
van 27 om 18 UTC tot 27 om 21 UTC
Wind 10 kt uit het noorden
Zicht 10 km of meer
Weinig wolken op 2600 ft

TAF: OLBA 261600Z 2618/2724 35008KT 9999 FEW026 BECMG 2706/2709 34008KT 8000 SCT026 BECMG 2718/2721 35010KT 9999 FEW026

Waarnemingen en weersverwachtingen van meer dan 4000 vliegvelden (METAR en TAF).

De beschikbare stations zijn de gele en rode punten op de kaart.

Ga met uw muis naar het station om de naam te zien.

Klik dan om waarnemingen en weersverwachtingen te zien.

kaart wijzigen: klik op de groene knoppen met een zwart kruis om in te zoomen, op de groene knop met een streepje om uit te zoomen of op de groene pijlen voor aangrenzende kaarten.


METAR-TAF: